Time;durP1;ratioP1;P1;durP2;ratioP2;P2;SDS_P1;SDS_P2;PMS_P1;PMS_P2;Temp;Humidity;BMP_temperature;BMP_pressure;BME280_temperature;BME280_humidity;BME280_pressure;Samples;Min_cycle;Max_cycle;Signal;HPM_P1;HPM_P2
2022/04/24 00:02:20;;;;;;;9.83;8.93;;;;;;;7.31;100.00;95307.78;4893360;29;20634;-56
2022/04/24 00:04:49;;;;;;;10.97;9.93;;;;;;;7.04;100.00;95300.78;4841174;29;20223;-57
2022/04/24 00:07:18;;;;;;;8.97;8.20;;;;;;;6.83;100.00;95312.41;4888888;29;20227;-61
2022/04/24 00:09:46;;;;;;;10.17;9.37;;;;;;;6.79;100.00;95308.56;4875471;29;20339;-58
2022/04/24 00:12:16;;;;;;;9.70;8.83;;;;;;;6.77;100.00;95300.06;4869650;29;20753;-60
2022/04/24 00:14:44;;;;;;;10.13;9.27;;;;;;;6.70;100.00;95296.63;4891463;29;20744;-57
2022/04/24 00:17:12;;;;;;;10.10;9.20;;;;;;;6.56;100.00;95293.22;4890902;29;20330;-60
2022/04/24 00:19:40;;;;;;;11.43;10.37;;;;;;;6.56;100.00;95293.22;4853577;29;20263;-60
2022/04/24 00:22:09;;;;;;;9.87;9.07;;;;;;;6.64;100.00;95288.56;4878900;29;20572;-54
2022/04/24 00:24:38;;;;;;;11.10;10.00;;;;;;;6.65;100.00;95276.19;4877328;29;20630;-59
2022/04/24 00:27:08;;;;;;;10.37;9.57;;;;;;;6.63;100.00;95283.47;4866721;29;21856;-58
2022/04/24 00:29:36;;;;;;;9.53;8.63;;;;;;;6.45;100.00;95273.59;4895260;29;20314;-61
2022/04/24 00:32:05;;;;;;;11.17;10.03;;;;;;;6.45;100.00;95278.88;4890224;29;20385;-58
2022/04/24 00:34:33;;;;;;;10.13;9.13;;;;;;;6.40;100.00;95273.41;4858042;29;20220;-60
2022/04/24 00:37:01;;;;;;;9.73;8.93;;;;;;;6.26;100.00;95270.81;4868731;29;20439;-60
2022/04/24 00:39:29;;;;;;;10.50;9.60;;;;;;;6.25;100.00;95266.56;4893628;29;20283;-61
2022/04/24 00:41:59;;;;;;;9.77;8.90;;;;;;;6.36;100.00;95255.41;4850888;29;20334;-58
2022/04/24 00:44:27;;;;;;;9.67;8.77;;;;;;;6.21;100.00;95260.88;4889886;29;20287;-57
2022/04/24 00:46:57;;;;;;;9.73;8.90;;;;;;;6.26;100.00;95257.66;4887875;29;20436;-59
2022/04/24 00:49:25;;;;;;;9.70;8.70;;;;;;;6.14;100.00;95252.19;4857959;29;20271;-58
2022/04/24 00:51:54;;;;;;;9.13;8.33;;;;;;;6.03;100.00;95243.09;4870160;29;20291;-59
2022/04/24 00:54:22;;;;;;;9.03;8.13;;;;;;;5.89;100.00;95244.88;4892730;29;20590;-58
2022/04/24 00:56:50;;;;;;;9.63;8.83;;;;;;;5.78;100.00;95251.53;4875015;29;20217;-57
2022/04/24 00:59:19;;;;;;;10.67;9.67;;;;;;;5.84;100.00;95251.75;4870976;29;20232;-54
2022/04/24 01:01:47;;;;;;;9.13;8.33;;;;;;;5.71;100.00;95242.84;4888772;29;20338;-59
2022/04/24 01:04:16;;;;;;;10.57;9.67;;;;;;;5.65;100.00;95243.66;4891610;29;20209;-59
2022/04/24 01:06:45;;;;;;;10.03;9.03;;;;;;;5.55;100.00;95245.88;4854313;29;20652;-59
2022/04/24 01:09:15;;;;;;;10.57;9.43;;;;;;;5.53;100.00;95245.28;4870187;29;20406;-55
2022/04/24 01:11:44;;;;;;;9.67;8.77;;;;;;;5.53;100.00;95240.03;4886726;29;20677;-56
2022/04/24 01:14:12;;;;;;;10.37;9.47;;;;;;;5.52;100.00;95238.41;4857821;29;20359;-58
2022/04/24 01:16:42;;;;;;;10.10;9.20;;;;;;;5.42;100.00;95231.69;4891031;29;20304;-54
2022/04/24 01:19:10;;;;;;;10.87;9.87;;;;;;;5.45;100.00;95239.16;4891819;29;20321;-60
2022/04/24 01:21:42;;;;;;;11.17;10.17;;;;;;;5.35;100.00;95236.13;4856860;29;20226;-58
2022/04/24 01:24:10;;;;;;;11.17;10.07;;;;;;;5.33;100.00;95236.34;4868399;29;21618;-59
2022/04/24 01:26:38;;;;;;;10.90;9.83;;;;;;;5.35;100.00;95226.44;4891397;29;20512;-59
2022/04/24 01:29:06;;;;;;;12.00;10.80;;;;;;;5.30;100.00;95223.63;4856606;29;21039;-56
2022/04/24 01:31:34;;;;;;;10.93;9.93;;;;;;;5.41;100.00;95224.81;4894885;29;20308;-59
2022/04/24 01:34:43;;;;;;;10.53;9.53;;;;;;;5.39;100.00;95220.78;4881690;29;20427;-59
2022/04/24 01:37:13;;;;;;;11.17;10.17;;;;;;;5.42;100.00;95213.31;4851809;29;20582;-59
2022/04/24 01:39:41;;;;;;;12.97;11.07;;;;;;;5.36;100.00;95212.31;4866524;29;20272;-60
2022/04/24 01:42:09;;;;;;;12.27;11.03;;;;;;;5.39;100.00;95210.28;4894454;29;20828;-57
2022/04/24 01:44:37;;;;;;;11.50;10.43;;;;;;;5.57;100.00;95218.38;4876270;29;20216;-55
2022/04/24 01:47:06;;;;;;;13.20;12.00;;;;;;;5.61;100.00;95208.28;4866570;29;20369;-59
2022/04/24 01:49:34;;;;;;;13.63;12.23;;;;;;;5.69;100.00;95200.22;4896833;29;20240;-56
2022/04/24 01:52:02;;;;;;;13.43;12.13;;;;;;;5.79;100.00;95184.84;4852582;29;20743;-57
2022/04/24 01:54:32;;;;;;;13.57;12.17;;;;;;;5.83;100.00;95179.16;4894556;29;20219;-59
2022/04/24 01:57:00;;;;;;;13.50;12.30;;;;;;;6.00;100.00;95171.66;4863532;29;20569;-61
2022/04/24 01:59:28;;;;;;;14.80;13.13;;;;;;;5.97;100.00;95174.72;4888663;29;20828;-57
2022/04/24 02:01:57;;;;;;;14.47;13.07;;;;;;;5.97;100.00;95174.72;4863175;29;20238;-54
2022/04/24 02:04:26;;;;;;;12.77;11.53;;;;;;;5.99;100.00;95191.91;4895569;29;20204;-61
2022/04/24 02:06:54;;;;;;;14.00;12.60;;;;;;;6.01;100.00;95203.06;4856467;29;20212;-59
2022/04/24 02:09:22;;;;;;;15.13;13.60;;;;;;;6.03;100.00;95206.28;4893113;29;20239;-60
2022/04/24 02:11:52;;;;;;;13.50;12.20;;;;;;;6.06;100.00;95197.16;4863999;29;20213;-57
2022/04/24 02:14:20;;;;;;;14.37;12.97;;;;;;;6.11;100.00;95175.53;4876197;29;20300;-57
2022/04/24 02:16:49;;;;;;;13.63;12.33;;;;;;;6.09;100.00;95181.00;4876102;29;20506;-61
2022/04/24 02:19:17;;;;;;;14.07;12.67;;;;;;;6.20;100.00;95185.63;4884313;29;20654;-59
2022/04/24 02:21:45;;;;;;;12.30;10.70;;;;;;;6.14;100.00;95183.00;4895779;29;20538;-55
2022/04/24 02:24:14;;;;;;;14.00;12.57;;;;;;;6.00;100.00;95193.53;4849903;29;20227;-59
2022/04/24 02:26:42;;;;;;;14.43;13.07;;;;;;;5.90;100.00;95195.78;4864392;29;20632;-55
2022/04/24 02:29:11;;;;;;;13.30;12.03;;;;;;;5.78;100.00;95188.47;4895337;29;20232;-58
2022/04/24 02:31:40;;;;;;;14.13;12.77;;;;;;;5.73;100.00;95185.66;4878394;29;20243;-56
2022/04/24 02:34:08;;;;;;;14.23;12.23;;;;;;;5.67;100.00;95181.22;4864078;29;20201;-58
2022/04/24 02:36:36;;;;;;;13.83;12.53;;;;;;;5.64;100.00;95182.41;4893511;29;20624;-57
2022/04/24 02:39:04;;;;;;;13.50;12.10;;;;;;;5.61;100.00;95182.81;4854668;29;20232;-60
2022/04/24 02:41:32;;;;;;;13.53;12.17;;;;;;;5.68;100.00;95174.13;4864616;29;20439;-58
2022/04/24 02:44:01;;;;;;;14.00;12.60;;;;;;;5.73;100.00;95166.47;4896731;29;20711;-60
2022/04/24 02:46:30;;;;;;;14.90;13.47;;;;;;;5.73;100.00;95156.75;4874207;29;20416;-58
2022/04/24 02:48:58;;;;;;;14.40;12.90;;;;;;;5.80;100.00;95148.88;4869612;29;20339;-56
2022/04/24 02:51:27;;;;;;;15.37;13.77;;;;;;;5.75;100.00;95143.41;4891857;29;20235;-54
2022/04/24 02:53:55;;;;;;;15.07;13.57;;;;;;;5.76;100.00;95135.31;4895908;29;20204;-56
2022/04/24 02:56:23;;;;;;;15.20;13.70;;;;;;;5.86;100.00;95136.72;4824196;29;20216;-60
2022/04/24 02:58:51;;;;;;;14.80;13.23;;;;;;;6.04;100.00;95134.28;4895500;29;20319;-58
2022/04/24 03:01:21;;;;;;;17.03;15.37;;;;;;;6.01;100.00;95136.50;4870620;29;20542;-59
2022/04/24 03:03:51;;;;;;;16.77;15.03;;;;;;;6.03;100.00;95137.94;4866450;29;20633;-59
2022/04/24 03:06:19;;;;;;;17.83;15.93;;;;;;;6.06;100.00;95137.53;4891087;29;20212;-58
2022/04/24 03:08:47;;;;;;;18.20;16.43;;;;;;;6.18;100.00;95131.63;4895164;29;20228;-58
2022/04/24 03:11:16;;;;;;;15.57;14.10;;;;;;;6.20;100.00;95138.31;4840142;29;20215;-60
2022/04/24 03:13:44;;;;;;;18.57;14.30;;;;;;;6.29;100.00;95141.53;4883563;29;20212;-59
2022/04/24 03:16:12;;;;;;;16.70;14.93;;;;;;;6.37;100.00;95143.09;4875865;29;20407;-55
2022/04/24 03:18:41;;;;;;;15.60;14.03;;;;;;;6.44;100.00;95150.97;4865382;29;20830;-58
2022/04/24 03:21:10;;;;;;;17.20;15.23;;;;;;;6.45;100.00;95163.94;4890591;29;20208;-59
2022/04/24 03:23:39;;;;;;;15.60;14.00;;;;;;;6.43;100.00;95152.00;4892606;29;20234;-58
2022/04/24 03:26:14;;;;;;;15.07;13.67;;;;;;;6.47;100.00;95155.81;4852439;29;20498;-59
2022/04/24 03:28:42;;;;;;;16.40;14.70;;;;;;;6.46;100.00;95152.38;4866089;29;20280;-59
2022/04/24 03:31:12;;;;;;;16.30;14.57;;;;;;;6.48;100.00;95153.00;4871599;29;20219;-60
2022/04/24 03:33:40;;;;;;;17.93;15.50;;;;;;;6.65;100.00;95150.69;4864065;29;20770;-60
2022/04/24 03:36:10;;;;;;;16.93;15.23;;;;;;;6.79;100.00;95148.78;4891298;29;20216;-57
2022/04/24 03:38:38;;;;;;;15.77;14.17;;;;;;;6.80;100.00;95154.88;4895434;29;20230;-61
2022/04/24 03:41:06;;;;;;;16.67;14.90;;;;;;;6.68;100.00;95143.41;4891047;29;20744;-56
2022/04/24 03:43:34;;;;;;;19.33;16.13;;;;;;;6.72;100.00;95139.31;4851829;29;20335;-54
2022/04/24 03:46:03;;;;;;;17.77;15.80;;;;;;;6.84;100.00;95131.59;4893401;29;20209;-57
2022/04/24 03:48:31;;;;;;;17.37;15.30;;;;;;;6.85;100.00;95128.72;4870978;29;20272;-59
2022/04/24 03:50:59;;;;;;;17.07;15.47;;;;;;;6.94;100.00;95140.59;4838465;29;20220;-59
2022/04/24 03:53:29;;;;;;;15.87;14.37;;;;;;;6.89;100.00;95135.19;4893457;29;20391;-53
2022/04/24 03:55:57;;;;;;;18.37;15.93;;;;;;;6.93;100.00;95125.03;4895795;29;20212;-57
2022/04/24 03:58:25;;;;;;;18.70;16.77;;;;;;;6.90;100.00;95143.91;4854922;29;20893;-57
2022/04/24 04:00:54;;;;;;;17.27;15.43;;;;;;;6.89;100.00;95142.28;4895438;29;20295;-56
2022/04/24 04:03:22;;;;;;;17.40;15.60;;;;;;;6.91;100.00;95145.50;4870564;29;20905;-54
2022/04/24 04:05:50;;;;;;;18.17;16.27;;;;;;;6.91;100.00;95127.88;4864288;29;20311;-59
2022/04/24 04:08:18;;;;;;;18.50;16.20;;;;;;;6.93;100.00;95117.94;4892649;29;20353;-58
2022/04/24 04:10:48;;;;;;;17.93;16.13;;;;;;;7.00;100.00;95131.06;4895540;29;20580;-61
2022/04/24 04:13:16;;;;;;;18.63;16.70;;;;;;;7.14;100.00;95139.69;4830098;29;20870;-59
2022/04/24 04:15:44;;;;;;;19.00;17.13;;;;;;;7.19;100.00;95134.59;4890967;29;20208;-55
2022/04/24 04:18:12;;;;;;;17.77;16.10;;;;;;;7.17;100.00;95134.00;4840659;29;20370;-61
2022/04/24 04:20:41;;;;;;;17.33;15.53;;;;;;;7.20;100.00;95128.31;4892278;29;20741;-55
2022/04/24 04:23:09;;;;;;;17.97;16.17;;;;;;;7.29;100.00;95125.41;4843922;29;20220;-57
2022/04/24 04:25:37;;;;;;;18.03;16.17;;;;;;;7.20;100.00;95112.50;4890936;29;20269;-62
2022/04/24 04:28:07;;;;;;;18.53;16.77;;;;;;;7.14;100.00;95113.38;4891819;29;20771;-58
2022/04/24 04:30:35;;;;;;;17.30;15.50;;;;;;;7.23;100.00;95116.56;4851583;29;20337;-58
2022/04/24 04:33:04;;;;;;;18.40;16.50;;;;;;;7.21;100.00;95106.22;4871703;29;22078;-58
2022/04/24 04:35:32;;;;;;;17.77;15.87;;;;;;;7.15;100.00;95106.25;4894156;29;20287;-60
2022/04/24 04:38:00;;;;;;;18.87;16.90;;;;;;;7.09;100.00;95089.50;4839885;29;20300;-60
2022/04/24 04:40:30;;;;;;;18.73;16.80;;;;;;;6.99;100.00;95083.88;4892954;29;20645;-58
2022/04/24 04:42:58;;;;;;;17.33;15.57;;;;;;;6.99;100.00;95086.50;4888036;29;20294;-61
2022/04/24 04:45:28;;;;;;;23.33;18.77;;;;;;;7.05;100.00;95106.75;4857843;29;20260;-61
2022/04/24 04:47:56;;;;;;;20.13;17.47;;;;;;;7.07;100.00;95139.72;4889552;29;20243;-58
2022/04/24 04:50:24;;;;;;;18.97;16.90;;;;;;;7.11;100.00;95184.91;4872973;29;20216;-62
2022/04/24 04:52:53;;;;;;;20.80;18.77;;;;;;;7.03;100.00;95171.97;4846133;29;20527;-60
2022/04/24 04:55:21;;;;;;;19.57;17.10;;;;;;;7.02;100.00;95159.84;4892894;29;20212;-58
2022/04/24 04:57:50;;;;;;;20.17;18.07;;;;;;;7.02;100.00;95141.41;4891181;29;20214;-57
2022/04/24 05:00:19;;;;;;;22.00;19.13;;;;;;;6.94;100.00;95130.06;4892692;29;20323;-61
2022/04/24 05:02:49;;;;;;;20.30;18.13;;;;;;;6.98;100.00;95113.84;4855585;29;20216;-59
2022/04/24 05:05:17;;;;;;;20.43;18.40;;;;;;;6.99;100.00;95113.66;4877193;29;20244;-59
2022/04/24 05:07:47;;;;;;;22.63;17.40;;;;;;;7.13;100.00;95109.13;4885661;29;20295;-59
2022/04/24 05:10:15;;;;;;;20.73;18.70;;;;;;;7.09;100.00;95119.25;4862307;29;20235;-57
2022/04/24 05:12:43;;;;;;;19.53;17.37;;;;;;;7.27;100.00;95128.28;4895891;29;20215;-58
2022/04/24 05:15:13;;;;;;;20.50;18.37;;;;;;;7.22;100.00;95133.38;4892283;29;20448;-58
2022/04/24 05:17:42;;;;;;;20.50;18.50;;;;;;;7.31;100.00;95154.97;4860551;29;20226;-57
2022/04/24 05:20:13;;;;;;;20.80;18.67;;;;;;;7.38;100.00;95164.47;4893621;29;20250;-57
2022/04/24 05:22:42;;;;;;;20.53;17.10;;;;;;;7.33;100.00;95166.94;4878013;29;20273;-58
2022/04/24 05:25:12;;;;;;;18.83;16.83;;;;;;;7.37;100.00;95188.38;4854243;29;20434;-58
2022/04/24 05:27:40;;;;;;;19.30;17.30;;;;;;;7.38;100.00;95190.81;4894274;29;20214;-55
2022/04/24 05:30:10;;;;;;;23.23;20.95;;;;;;;7.43;100.00;95192.00;4892868;29;20602;-57
2022/04/24 05:32:40;;;;;;;22.30;20.10;;;;;;;7.45;100.00;95190.78;4856521;29;20474;-57
2022/04/24 05:35:09;;;;;;;20.37;18.00;;;;;;;7.45;100.00;95195.22;4892173;29;20422;-62
2022/04/24 05:37:40;;;;;;;19.60;17.60;;;;;;;7.58;100.00;95210.97;4882606;29;20207;-60
2022/04/24 05:40:09;;;;;;;19.70;17.70;;;;;;;7.56;100.00;95206.91;4857264;29;21154;-57
2022/04/24 05:42:45;;;;;;;19.03;17.10;;;;;;;7.60;100.00;95210.72;4896410;29;20255;-60
2022/04/24 05:45:14;;;;;;;18.60;16.67;;;;;;;7.68;100.00;95203.38;4896980;29;20984;-61
2022/04/24 05:47:43;;;;;;;18.63;16.73;;;;;;;7.77;100.00;95203.94;4860718;29;20903;-59
2022/04/24 05:50:11;;;;;;;19.80;17.70;;;;;;;7.76;100.00;95207.56;4893513;29;20323;-58
2022/04/24 05:52:41;;;;;;;20.70;18.53;;;;;;;7.71;100.00;95198.69;4882448;29;20797;-59
2022/04/24 05:55:10;;;;;;;23.27;20.87;;;;;;;7.66;100.00;95194.06;4853524;29;20339;-59
2022/04/24 05:57:38;;;;;;;20.93;18.73;;;;;;;7.55;100.00;95182.38;4879436;29;20994;-60
2022/04/24 06:00:08;;;;;;;18.93;16.93;;;;;;;7.66;100.00;95186.97;4894963;29;20232;-61
2022/04/24 06:02:36;;;;;;;21.77;19.40;;;;;;;7.77;100.00;95193.38;4857148;29;20946;-60
2022/04/24 06:05:05;;;;;;;20.77;18.63;;;;;;;7.72;100.00;95203.72;4896142;29;20235;-61
2022/04/24 06:07:33;;;;;;;21.57;19.27;;;;;;;7.82;100.00;95211.16;4878950;29;20489;-60
2022/04/24 06:10:03;;;;;;;20.67;18.47;;;;;;;7.88;100.00;95210.31;4872569;29;20242;-57
2022/04/24 06:12:31;;;;;;;20.30;17.93;;;;;;;7.87;100.00;95219.25;4876275;29;20303;-57
2022/04/24 06:15:03;;;;;;;18.57;16.60;;;;;;;7.85;100.00;95218.66;4898984;29;20295;-62
2022/04/24 06:17:31;;;;;;;21.20;18.10;;;;;;;7.92;100.00;95223.88;4857129;29;20239;-58
2022/04/24 06:20:00;;;;;;;19.37;17.50;;;;;;;7.81;100.00;95231.47;4893560;29;20600;-60
2022/04/24 06:22:28;;;;;;;20.83;18.30;;;;;;;7.77;100.00;95240.00;4889283;29;20601;-53
2022/04/24 06:24:56;;;;;;;18.33;16.53;;;;;;;7.86;100.00;95237.94;4860038;29;20224;-60
2022/04/24 06:27:26;;;;;;;16.60;14.90;;;;;;;7.82;100.00;95232.25;4879379;29;20258;-60
2022/04/24 06:29:56;;;;;;;18.03;15.70;;;;;;;7.91;100.00;95246.00;4894543;29;20355;-60
2022/04/24 06:32:29;;;;;;;17.50;15.60;;;;;;;8.04;100.00;95239.81;4891207;29;21006;-60
2022/04/24 06:34:57;;;;;;;19.47;17.50;;;;;;;8.19;100.00;95240.28;4858185;29;20782;-58
2022/04/24 06:37:25;;;;;;;17.90;16.03;;;;;;;8.28;100.00;95254.00;4893179;29;20504;-58
2022/04/24 06:39:53;;;;;;;19.27;17.27;;;;;;;8.36;100.00;95258.22;4881580;29;20236;-59
2022/04/24 06:42:22;;;;;;;17.60;15.93;;;;;;;8.47;100.00;95269.88;4857993;29;20220;-60
2022/04/24 06:44:52;;;;;;;17.80;15.57;;;;;;;8.53;100.00;95274.31;4894592;29;20231;-63
2022/04/24 06:47:20;;;;;;;17.80;15.93;;;;;;;8.63;100.00;95279.09;4892050;29;20212;-58
2022/04/24 06:49:48;;;;;;;17.60;16.00;;;;;;;8.60;100.00;95280.34;4860362;29;20578;-60
2022/04/24 06:52:16;;;;;;;17.23;15.47;;;;;;;8.50;100.00;95283.47;4894281;29;20262;-61
2022/04/24 06:54:45;;;;;;;17.87;16.00;;;;;;;8.54;100.00;95287.28;4877851;29;21120;-62
2022/04/24 06:57:13;;;;;;;19.63;16.23;;;;;;;8.59;100.00;95291.94;4862849;29;20212;-62
2022/04/24 06:59:41;;;;;;;17.37;15.53;;;;;;;8.53;100.00;95285.69;4883236;29;20434;-57
2022/04/24 07:02:11;;;;;;;17.50;15.73;;;;;;;8.47;100.00;95283.06;4895786;29;20362;-60
2022/04/24 07:04:39;;;;;;;19.20;15.57;;;;;;;8.53;100.00;95288.31;4859202;29;21277;-58
2022/04/24 07:07:08;;;;;;;20.50;16.70;;;;;;;8.61;100.00;95276.69;4895324;29;20689;-59
2022/04/24 07:09:36;;;;;;;17.47;15.63;;;;;;;8.63;100.00;95274.63;4893528;29;20250;-58
2022/04/24 07:12:05;;;;;;;18.17;16.30;;;;;;;8.67;100.00;95275.78;4855504;29;20665;-60
2022/04/24 07:14:33;;;;;;;17.97;16.10;;;;;;;8.65;100.00;95277.84;4875476;29;20443;-61
2022/04/24 07:17:01;;;;;;;18.70;16.90;;;;;;;8.75;100.00;95273.88;4894164;29;20563;-60
2022/04/24 07:19:31;;;;;;;16.77;15.03;;;;;;;8.93;100.00;95281.84;4857036;29;20362;-60
2022/04/24 07:21:59;;;;;;;18.33;16.37;;;;;;;8.94;100.00;95280.81;4893895;29;20291;-59
2022/04/24 07:24:27;;;;;;;17.13;15.33;;;;;;;8.95;100.00;95290.34;4890865;29;20208;-61
2022/04/24 07:26:55;;;;;;;19.10;17.13;;;;;;;9.01;100.00;95295.75;4872412;29;20301;-57
2022/04/24 07:29:23;;;;;;;18.53;16.63;;;;;;;8.97;100.00;95301.50;4862016;29;20244;-61
2022/04/24 07:31:53;;;;;;;19.57;17.67;;;;;;;8.90;100.00;95319.25;4890673;29;20217;-56
2022/04/24 07:34:21;;;;;;;18.53;16.73;;;;;;;8.74;100.00;95310.06;4863655;29;20218;-57
2022/04/24 07:36:51;;;;;;;18.23;16.40;;;;;;;8.64;100.00;95312.38;4873063;29;20216;-62
2022/04/24 07:39:19;;;;;;;19.40;17.40;;;;;;;8.54;100.00;95312.91;4889277;29;20342;-61
2022/04/24 07:41:47;;;;;;;19.37;17.27;;;;;;;8.43;100.00;95301.19;4871586;29;20617;-62
2022/04/24 07:44:15;;;;;;;19.80;17.93;;;;;;;8.70;100.00;95319.41;4888558;29;20208;-59
2022/04/24 07:46:44;;;;;;;20.97;18.27;;;;;;;8.72;100.00;95327.97;4888388;29;20657;-61
2022/04/24 07:49:12;;;;;;;18.40;16.50;;;;;;;8.90;100.00;95327.16;4893948;29;20247;-57
2022/04/24 07:51:42;;;;;;;18.50;16.00;;;;;;;9.24;100.00;95326.81;4846873;29;20344;-62
2022/04/24 07:54:11;;;;;;;18.37;16.47;;;;;;;9.54;100.00;95321.53;4891215;29;20212;-60
2022/04/24 07:56:40;;;;;;;18.63;16.63;;;;;;;9.30;100.00;95339.13;4871121;29;20688;-62
2022/04/24 07:59:09;;;;;;;17.13;15.43;;;;;;;9.68;100.00;95334.63;4893631;29;20235;-60
2022/04/24 08:01:37;;;;;;;16.03;14.43;;;;;;;9.63;100.00;95351.13;4875100;29;20244;-64
2022/04/24 08:04:06;;;;;;;16.73;15.07;;;;;;;9.69;100.00;95346.81;4894767;29;20219;-58
2022/04/24 08:06:34;;;;;;;15.97;14.33;;;;;;;9.67;100.00;95339.09;4844990;29;23380;-60
2022/04/24 08:09:02;;;;;;;15.20;13.67;;;;;;;9.66;100.00;95340.13;4891634;29;20234;-58
2022/04/24 08:11:31;;;;;;;14.27;12.80;;;;;;;9.36;100.00;95332.16;4892483;29;20291;-59
2022/04/24 08:13:59;;;;;;;11.53;10.43;;;;;;;9.05;100.00;95326.78;4871012;29;20759;-59
2022/04/24 08:16:28;;;;;;;13.23;11.83;;;;;;;8.87;100.00;95319.66;4873994;29;20796;-58
2022/04/24 08:18:59;;;;;;;13.20;12.00;;;;;;;8.74;100.00;95317.16;4895578;29;21005;-58
2022/04/24 08:21:27;;;;;;;11.20;10.10;;;;;;;8.81;100.00;95336.38;4857738;29;20350;-62
2022/04/24 08:23:55;;;;;;;10.93;9.93;;;;;;;8.95;100.00;95347.63;4877700;29;20226;-64
2022/04/24 08:26:23;;;;;;;11.37;10.37;;;;;;;8.97;100.00;95346.41;4879849;29;20457;-59
2022/04/24 08:28:53;;;;;;;11.53;10.07;;;;;;;9.36;100.00;95355.94;4874582;29;20834;-59
2022/04/24 08:31:21;;;;;;;11.73;10.53;;;;;;;9.45;100.00;95351.16;4880817;29;20207;-57
2022/04/24 08:33:50;;;;;;;7.80;7.10;;;;;;;9.75;100.00;95360.94;4888232;29;20319;-61
2022/04/24 08:36:18;;;;;;;8.87;8.07;;;;;;;9.57;100.00;95352.03;4856709;29;20224;-54
2022/04/24 08:38:46;;;;;;;8.38;7.65;;;;;;;10.01;100.00;95343.91;4894243;29;20541;-59
2022/04/24 08:41:14;;;;;;;7.40;6.80;;;;;;;10.46;100.00;95357.75;4877497;29;20833;-61
2022/04/24 08:43:43;;;;;;;7.17;6.57;;;;;;;10.78;100.00;95365.38;4867073;29;20784;-63
2022/04/24 08:46:12;;;;;;;6.03;5.53;;;;;;;11.18;100.00;95374.47;4899137;29;20232;-61
2022/04/24 08:48:41;;;;;;;7.60;7.00;;;;;;;11.34;100.00;95387.00;4882924;29;20480;-64
2022/04/24 08:51:10;;;;;;;6.80;6.30;;;;;;;11.82;100.00;95390.34;4857277;29;20821;-62
2022/04/24 08:53:43;;;;;;;5.07;4.67;;;;;;;11.84;100.00;95390.13;4893920;29;20665;-60
2022/04/24 08:56:11;;;;;;;4.70;4.40;;;;;;;11.54;100.00;95396.44;4889524;29;20201;-62
2022/04/24 08:58:40;;;;;;;4.33;4.03;;;;;;;11.11;100.00;95390.47;4858193;29;20355;-61
2022/04/24 09:01:08;;;;;;;3.20;3.00;;;;;;;10.61;100.00;95394.41;4895455;29;20201;-62
2022/04/24 09:03:37;;;;;;;3.10;2.90;;;;;;;10.96;100.00;95397.06;4879960;29;20209;-62
2022/04/24 09:06:05;;;;;;;3.07;2.97;;;;;;;11.30;100.00;95399.09;4876345;29;23664;-60
2022/04/24 09:08:35;;;;;;;3.17;2.97;;;;;;;12.12;100.00;95394.66;4865187;29;20717;-61
2022/04/24 09:11:24;;;;;;;4.77;3.67;;;;;;;13.09;100.00;95406.31;4881850;29;20219;-61
2022/04/24 09:16:46;;;;;;;2.97;2.77;;;;;;;12.80;100.00;95409.06;4894865;29;20272;-61
2022/04/24 09:19:21;;;;;;;2.30;2.20;;;;;;;12.80;100.00;95406.41;4877593;29;20793;-61
2022/04/24 09:21:49;;;;;;;2.70;2.50;;;;;;;12.25;100.00;95409.50;4891444;29;20232;-62
2022/04/24 09:24:18;;;;;;;2.43;2.23;;;;;;;12.45;100.00;95403.72;4862772;29;20254;-60
2022/04/24 09:26:53;;;;;;;2.57;2.37;;;;;;;12.01;100.00;95403.47;4886790;29;20323;-59
2022/04/24 09:29:22;;;;;;;2.23;2.00;;;;;;;12.18;100.00;95403.53;4871426;29;20572;-61
2022/04/24 09:31:52;;;;;;;1.93;1.70;;;;;;;12.54;100.00;95401.50;4888230;29;20220;-58
2022/04/24 09:34:22;;;;;;;1.73;1.67;;;;;;;12.70;100.00;95407.88;4882529;29;20327;-58
2022/04/24 09:37:00;;;;;;;0.90;0.90;;;;;;;12.23;100.00;95416.06;4892989;29;21632;-64
2022/04/24 09:39:28;;;;;;;1.88;1.52;;;;;;;11.44;100.00;95416.41;4831063;29;20577;-61
2022/04/24 09:42:02;;;;;;;1.90;1.80;;;;;;;11.62;100.00;95419.13;4882457;29;20208;-60
2022/04/24 09:44:37;;;;;;;1.50;1.40;;;;;;;11.73;100.00;95431.56;4880753;29;20284;-54
2022/04/24 09:47:27;;;;;;;1.50;1.43;;;;;;;11.69;100.00;95439.19;4874048;29;20264;-60
2022/04/24 09:49:57;;;;;;;1.43;1.43;;;;;;;12.42;100.00;95446.72;4879175;29;20330;-60
2022/04/24 09:52:25;;;;;;;1.53;1.43;;;;;;;12.47;100.00;95447.84;4889733;29;20217;-62
2022/04/24 09:54:56;;;;;;;1.20;1.20;;;;;;;12.91;100.00;95452.56;4860284;29;20220;-59
2022/04/24 09:57:25;;;;;;;1.30;1.23;;;;;;;12.74;100.00;95472.78;4879038;29;20216;-61
2022/04/24 09:59:53;;;;;;;1.00;1.00;;;;;;;12.87;100.00;95476.94;4884194;29;20336;-62
2022/04/24 10:02:21;;;;;;;0.77;0.77;;;;;;;13.34;100.00;95487.50;4870267;29;20450;-57
2022/04/24 10:04:50;;;;;;;0.57;0.57;;;;;;;13.05;100.00;95493.72;4896625;29;20212;-58
2022/04/24 10:07:20;;;;;;;0.67;0.67;;;;;;;12.71;100.00;95497.16;4875844;29;20233;-60
2022/04/24 10:09:48;;;;;;;0.60;0.60;;;;;;;12.33;100.00;95497.78;4860121;29;20232;-62
2022/04/24 10:12:18;;;;;;;0.63;0.63;;;;;;;12.67;100.00;95480.06;4880536;29;20428;-63
2022/04/24 10:14:54;;;;;;;0.70;0.70;;;;;;;12.90;100.00;95470.34;4883150;29;20212;-61
2022/04/24 10:17:59;;;;;;;0.57;0.57;;;;;;;13.59;100.00;95476.47;4870616;29;20216;-61
2022/04/24 10:20:35;;;;;;;1.27;0.70;;;;;;;13.71;100.00;95471.03;4894288;29;20519;-56
2022/04/24 10:23:05;;;;;;;0.97;0.87;;;;;;;13.51;100.00;95467.06;4857887;29;20303;-61
2022/04/24 10:25:37;;;;;;;1.70;0.50;;;;;;;13.92;100.00;95466.00;4887419;29;20215;-61
2022/04/24 10:28:16;;;;;;;0.70;0.70;;;;;;;13.24;100.00;95461.56;4880887;29;20232;-60
2022/04/24 10:30:46;;;;;;;1.07;0.67;;;;;;;13.23;100.00;95449.31;4863059;29;20215;-63
2022/04/24 10:33:18;;;;;;;0.90;0.70;;;;;;;13.60;100.00;95443.47;4871524;29;20212;-60
2022/04/24 10:35:50;;;;;;;0.50;0.50;;;;;;;13.43;100.00;95438.19;4894214;29;20239;-58
2022/04/24 10:38:22;;;;;;;0.70;0.70;;;;;;;13.19;100.00;95433.06;4878773;29;20499;-63
2022/04/24 10:40:57;;;;;;;0.50;0.50;;;;;;;13.06;100.00;95420.09;4860687;29;20227;-62
2022/04/24 10:43:26;;;;;;;0.50;0.50;;;;;;;12.96;100.00;95426.06;4868197;29;20880;-58
2022/04/24 10:45:54;;;;;;;0.70;0.70;;;;;;;13.58;100.00;95421.63;4879497;29;20212;-60
2022/04/24 10:48:22;;;;;;;0.87;0.83;;;;;;;13.66;100.00;95418.56;4868193;29;20344;-63
2022/04/24 10:50:52;;;;;;;1.03;1.03;;;;;;;13.56;100.00;95416.56;4890406;29;20259;-61
2022/04/24 10:53:21;;;;;;;0.93;0.93;;;;;;;12.90;100.00;95419.06;4855180;29;20696;-61
2022/04/24 10:55:50;;;;;;;0.57;0.57;;;;;;;13.34;100.00;95413.03;4854108;29;20426;-64
2022/04/24 10:58:27;;;;;;;0.40;0.40;;;;;;;13.58;100.00;95421.63;4867872;29;20236;-64
2022/04/24 11:00:55;;;;;;;0.70;0.70;;;;;;;13.93;100.00;95414.34;4892449;29;20212;-59
2022/04/24 11:03:23;;;;;;;0.60;0.60;;;;;;;14.28;100.00;95416.59;4872554;29;20212;-63
2022/04/24 11:05:59;;;;;;;0.70;0.70;;;;;;;14.97;99.27;95413.47;4895435;29;20263;-65
2022/04/24 11:08:29;;;;;;;0.63;0.63;;;;;;;14.73;98.43;95411.97;4872525;29;20240;-58
2022/04/24 11:11:05;;;;;;;2.10;0.70;;;;;;;14.55;100.00;95412.31;4862015;29;20678;-63
2022/04/24 11:13:34;;;;;;;0.80;0.80;;;;;;;14.78;100.00;95402.41;4891339;29;20219;-59
2022/04/24 11:16:03;;;;;;;0.40;0.40;;;;;;;14.45;100.00;95400.50;4893593;29;20239;-60
2022/04/24 11:18:35;;;;;;;0.30;0.30;;;;;;;13.93;100.00;95409.81;4859717;29;20311;-60
2022/04/24 11:21:05;;;;;;;0.57;0.57;;;;;;;13.27;100.00;95406.03;4894050;29;20204;-56
2022/04/24 11:23:36;;;;;;;0.47;0.47;;;;;;;13.18;100.00;95412.84;4891745;29;20430;-61
2022/04/24 11:26:09;;;;;;;0.60;0.60;;;;;;;12.88;100.00;95414.81;4868738;29;20322;-58
2022/04/24 11:28:40;;;;;;;0.57;0.57;;;;;;;13.64;100.00;95418.00;4884799;29;20237;-62
2022/04/24 11:31:18;;;;;;;0.50;0.50;;;;;;;13.77;100.00;95418.69;4892720;29;20235;-60
2022/04/24 11:33:57;;;;;;;0.57;0.57;;;;;;;13.88;100.00;95417.75;4870484;29;20671;-57
2022/04/24 11:36:31;;;;;;;1.13;1.07;;;;;;;13.97;96.91;95424.25;4891437;29;20310;-62